Baltimore, MD (21206)

14:56 EDT le 02 septembre 2014 (GMT -0400)
Parkville/Harris | Change Station
CLOSE
Current Station
Stations météorologiques personnelles
Location: Baltimore, MD
Altitude: 351 ft
Stations météo à proximité

Alt. 351 ft 39.37 °N, 76.54 °W | Updated 7 minutes ago

Partiellement nuageux
Partiellement nuageux
93.7 ° F
Paraît 102 ° F
N
5.3
Vent Variable Vent de OSO

Aujourd'hui
Haut(e) -- | Bas -- ° F
--% Risque de précip.
Hier
Haut(e) -- | Bas -- ° F
Precip. -- pouce
6:35 AM 7:35 PM
Premier quartier, 54% visible
Pression 29.92 pouce
Visibilité 10.0 Miles terrestres
Nuages Nuages épars 5000 ft
Nuages épars 25000 ft
indice de chaleur 102 ° F
Point de rosée 72 ° F
Humidité 50%
Précipitations 0.00 pouce
Profondeur de la couche neigeuse Non disponible.
UV 7 sur 12
Pollen 8.80 sur 12
Qualité de l'air Non disponible.
Flu Activity Non disponible.
METAR KBWI 021754Z 25006KT 10SM SCT050TCU SCT250 32/21 A2992 RMK AO2 SLP131 TCU E AND S T03220206 10322 20244 58017

More Conditions Fewer Conditions

Pression 29.92 pouce
Visibilité 10.0 Miles terrestres
Nuages Nuages épars 5000 ft
Nuages épars 25000 ft
indice de chaleur 102 ° F
Point de rosée 72 ° F
Humidité 50%
Précipitations 0.00 pouce
Profondeur de la couche neigeuse Non disponible.
UV 7 sur 12
Pollen 8.80 sur 12
Qualité de l'air Non disponible.
Flu Activity Non disponible.
METAR KBWI 021754Z 25006KT 10SM SCT050TCU SCT250 32/21 A2992 RMK AO2 SLP131 TCU E AND S T03220206 10322 20244 58017

More Conditions Fewer Conditions

10-Day Weather Forecast

Almanac

Astronomie

Sep. 02, 2014 Lever Coucher
Temps réel 06:35 EDT 19:35 EDT
Crépuscule civil 06:08 EDT 20:02 EDT
Crépuscule nautique 05:35 EDT 20:35 EDT
Crépuscule astronomique 05:01 EDT 21:09 EDT
Lune 14:15 EDT Pas de coucher de lune
Durée de lumière visible 13h 54m
Longueur du jour
12h 59m
Tomorrow will be 2m 28s shorter.
Premier quartier, 54% of the Moon is Illuminated
Aujourd'hui
Premier quartier
Sep 8
Pleine lune
Sep 15
Dernier quartier
Sep 24
Nouveau
Oct 1
Premier quartier

Extrêmes aujourd'hui

State Highs State Lows

Community

WunderPhotos

Upload Photos

1,749,743 Photos téléchargées !

WunderBlogs® & News

By Dr. Jeff Masters
Director of Meteorology, Weather Underground
By Kari Strenfel
Meteorologist, Weather Underground
By Christopher C. Burt
Weather Historian, Weather Underground
September 2, 2014
September 2, 2014
September 2, 2014

Nearby

Épaisseur de neige

Station Depth Altitude
Pas de nouvelles chutes de neige

Activité sismique

Ville Distance Mag. Time & Date
No recent earthquake activity has been reported nearby.
Minimum magnitude displayed is 2.5.

Températures des eaux côtières

Lieu Température
Baltimore, MD 82.9 ° F
Tolchester Beach, MD 81.0 ° F
Washington, DC 82.0 ° F

Stations météo à proximité